Etusivu
METAR-TAF:

METAR-TAF

Lentoasemat :

Minocqua / Woodruff, Wisconsin, Yhdysvallat

Leveyspiiri: 45-56N, Pituuspiiri: 089-44W, korkeus merenpinnasta: 496 m

Tämänhetkinen sää

Tämä raportti tehtiin 17 minuuttia sitten, kello 07.35 UTC
Tuuli 10 kn etelästä/lounaasta puuskistuen 17 kn:hen
Lämpötila -7°C
Kosteus 79%
Ilmanpaine 1014 hPa
Näkyvyys: 16.1 km
selkeää

METAR: KARV 220735Z AUTO 21010G17KT 10SM CLR M07/M10 A2993 RMK AO2 T10711102

Aika: 01:52 (07:52 UTC)


TAF: puuttuu

Säähavainnot ja -ennusteet yli 4000 lentoasemalta (METAR- ja TAF-raportit).

Käytössä olevat sääasemat on merkitty karttaan keltaisilla ja punaisilla pisteillä.

Aseta hiiri pisteen päälle nähdäksesi sääaseman nimen.

Klikkaa sitten nähdäksesi säähavainnot ja -ennusteet.

Kartan vaihtaminen: klikkaa mustalla rastilla varustettuja vihreitä pisteitä, niin voit zoomata sisään; viivalla varustettua vihreää pistettä, niin voit zoomata ulos tai vihreitä nuolia, niin pääset viereisille kartoille.


METAR-TAF: